createdAt,value
2019-04-12T00:00:52.155Z,1023.10
2019-04-12T00:01:52.730Z,1023.14
2019-04-12T00:02:53.303Z,1023.18
2019-04-12T00:03:53.879Z,1023.21
2019-04-12T00:04:54.454Z,1023.16
2019-04-12T00:05:55.024Z,1023.18
2019-04-12T00:06:55.599Z,1023.14
2019-04-12T00:07:56.179Z,1023.21
2019-04-12T00:08:59.149Z,1023.17
2019-04-12T00:09:58.947Z,1023.24
2019-04-12T00:10:59.934Z,1023.18
2019-04-12T00:12:00.558Z,1023.21
2019-04-12T00:13:01.132Z,1023.19
2019-04-12T00:14:01.756Z,1023.19
2019-04-12T00:15:02.327Z,1023.19
2019-04-12T00:16:02.903Z,1023.19
2019-04-12T00:17:03.481Z,1023.18
2019-04-12T00:18:04.047Z,1023.16
2019-04-12T00:19:04.621Z,1023.16
2019-04-12T00:20:05.193Z,1023.16
2019-04-12T00:21:05.765Z,1023.10
2019-04-12T00:22:06.340Z,1023.08
2019-04-12T00:23:06.914Z,1023.12
2019-04-12T00:24:07.489Z,1023.04
2019-04-12T00:25:08.107Z,1023.03
2019-04-12T00:26:08.678Z,1023.08
2019-04-12T00:27:09.251Z,1023.04
2019-04-12T00:28:09.823Z,1023.01
2019-04-12T00:29:10.395Z,1022.99
2019-04-12T00:30:11.019Z,1022.98
2019-04-12T00:31:11.592Z,1023.00
2019-04-12T00:32:12.167Z,1023.03
2019-04-12T00:33:12.738Z,1023.02
2019-04-12T00:34:13.363Z,1023.06
2019-04-12T00:35:13.937Z,1022.99
2019-04-12T00:36:14.510Z,1023.04
2019-04-12T00:37:15.136Z,1023.09
2019-04-12T00:38:15.760Z,1022.96
2019-04-12T00:39:16.338Z,1023.02
2019-04-12T00:40:16.910Z,1023.04
2019-04-12T00:41:17.483Z,1023.08
2019-04-12T00:42:18.065Z,1022.98
2019-04-12T00:43:18.681Z,1023.01
2019-04-12T00:44:19.302Z,1023.08
2019-04-12T00:45:19.917Z,1023.05
2019-04-12T00:46:20.596Z,1023.03
2019-04-12T00:47:21.164Z,1022.97
2019-04-12T00:48:21.736Z,1023.04
2019-04-12T00:49:22.310Z,1022.96
2019-04-12T00:50:22.884Z,1022.95
2019-04-12T00:51:23.479Z,1022.92
2019-04-12T00:52:24.030Z,1022.92
2019-04-12T00:53:24.604Z,1022.92
2019-04-12T00:54:25.177Z,1022.85
2019-04-12T00:55:25.753Z,1022.85
2019-04-12T00:56:26.374Z,1022.86
2019-04-12T00:57:26.946Z,1022.83
2019-04-12T00:58:27.518Z,1022.80
2019-04-12T00:59:28.090Z,1022.82
2019-04-12T01:00:28.665Z,1022.81
2019-04-12T01:03:04.522Z,1022.77
2019-04-12T01:04:05.095Z,1022.79
2019-04-12T01:05:05.653Z,1022.77
2019-04-12T01:06:06.221Z,1022.77
2019-04-12T01:08:33.929Z,1022.77
2019-04-12T01:09:34.494Z,1022.79
2019-04-12T01:10:35.058Z,1022.77
2019-04-12T01:11:35.676Z,1022.69
2019-04-12T01:12:50.012Z,1022.79
2019-04-12T01:13:50.591Z,1022.75
2019-04-12T01:14:51.314Z,1022.67
2019-04-12T01:15:51.890Z,1022.70
2019-04-12T01:16:52.515Z,1022.64
2019-04-12T01:17:53.087Z,1022.62
2019-04-12T01:18:53.661Z,1022.58
2019-04-12T01:19:54.235Z,1022.68
2019-04-12T01:20:54.807Z,1022.61
2019-04-12T01:21:55.379Z,1022.57
2019-04-12T01:22:55.954Z,1022.65
2019-04-12T01:23:56.527Z,1022.66
2019-04-12T01:24:57.873Z,1022.62
2019-04-12T01:25:58.490Z,1022.57
2019-04-12T01:26:59.061Z,1022.66
2019-04-12T01:27:59.634Z,1022.58
2019-04-12T01:29:00.208Z,1022.56
2019-04-12T01:30:00.844Z,1022.53
2019-04-12T01:31:01.419Z,1022.48
2019-04-12T01:32:01.992Z,1022.47
2019-04-12T01:33:02.567Z,1022.47
2019-04-12T01:34:03.188Z,1022.44
2019-04-12T01:35:03.811Z,1022.49
2019-04-12T01:36:04.384Z,1022.42
2019-04-12T01:37:04.959Z,1022.47
2019-04-12T01:38:05.583Z,1022.43
2019-04-12T01:39:06.158Z,1022.43
2019-04-12T01:40:06.730Z,1022.43
2019-04-12T01:41:07.304Z,1022.38
2019-04-12T01:42:07.875Z,1022.37
2019-04-12T01:43:08.448Z,1022.44
2019-04-12T01:44:09.072Z,1022.41
2019-04-12T01:45:09.695Z,1022.31
2019-04-12T01:46:10.279Z,1022.39
2019-04-12T01:47:10.842Z,1022.38
2019-04-12T01:48:11.417Z,1022.38
2019-04-12T01:49:12.041Z,1022.33
2019-04-12T01:50:12.611Z,1022.32
2019-04-12T01:51:13.185Z,1022.33
2019-04-12T01:52:13.755Z,1022.36
2019-04-12T01:53:14.378Z,1022.35
2019-04-12T01:54:14.954Z,1022.36
2019-04-12T01:55:15.565Z,1022.35
2019-04-12T01:56:16.182Z,1022.27
2019-04-12T01:57:16.747Z,1022.33
2019-04-12T01:58:17.323Z,1022.29
2019-04-12T01:59:17.894Z,1022.29
2019-04-12T02:00:18.470Z,1022.27
2019-04-12T02:01:19.039Z,1022.22
2019-04-12T02:02:19.615Z,1022.30
2019-04-12T02:03:20.188Z,1022.22
2019-04-12T02:04:20.813Z,1022.21
2019-04-12T02:05:21.588Z,1022.19
2019-04-12T02:06:22.213Z,1022.20
2019-04-12T02:07:22.937Z,1022.24
2019-04-12T02:08:23.512Z,1022.25
2019-04-12T02:09:24.086Z,1022.19
2019-04-12T02:10:24.660Z,1022.19
2019-04-12T02:11:25.237Z,1022.19
2019-04-12T02:12:25.810Z,1022.12
2019-04-12T02:13:26.383Z,1022.12
2019-04-12T02:14:26.959Z,1022.22
2019-04-12T02:15:27.532Z,1022.22
2019-04-12T02:16:28.155Z,1022.20
2019-04-12T02:17:28.727Z,1022.22
2019-04-12T02:18:29.299Z,1022.27
2019-04-12T02:19:29.872Z,1022.18
2019-04-12T02:20:30.494Z,1022.18
2019-04-12T02:21:31.066Z,1022.24
2019-04-12T02:22:31.640Z,1022.19
2019-04-12T02:23:32.214Z,1022.23
2019-04-12T02:24:32.839Z,1022.24
2019-04-12T02:25:33.421Z,1022.22
2019-04-12T02:26:33.983Z,1022.23
2019-04-12T02:27:34.557Z,1022.29
2019-04-12T02:28:35.129Z,1022.28
2019-04-12T02:29:35.703Z,1022.23
2019-04-12T02:30:36.276Z,1022.20
2019-04-12T02:32:38.505Z,1022.18
2019-04-12T02:34:10.498Z,1022.13
2019-04-12T02:35:28.834Z,1022.25
2019-04-12T02:36:29.404Z,1022.25
2019-04-12T02:37:29.976Z,1022.22
2019-04-12T02:38:30.551Z,1022.36
2019-04-12T02:39:31.177Z,1022.27
2019-04-12T02:40:31.749Z,1022.22
2019-04-12T02:41:32.368Z,1022.27
2019-04-12T02:42:32.941Z,1022.28
2019-04-12T02:43:33.525Z,1022.34
2019-04-12T02:44:34.090Z,1022.38
2019-04-12T02:45:34.661Z,1022.28
2019-04-12T02:46:35.238Z,1022.29
2019-04-12T02:47:35.810Z,1022.35
2019-04-12T02:48:36.532Z,1022.34
2019-04-12T02:49:37.116Z,1022.37
2019-04-12T02:50:37.681Z,1022.31
2019-04-12T02:51:38.262Z,1022.38
2019-04-12T02:52:38.830Z,1022.35
2019-04-12T02:53:39.401Z,1022.29
2019-04-12T02:54:39.975Z,1022.36
2019-04-12T02:55:40.550Z,1022.33
2019-04-12T02:56:41.122Z,1022.34
2019-04-12T02:57:41.699Z,1022.32
2019-04-12T02:58:42.318Z,1022.23
2019-04-12T02:59:42.894Z,1022.36
2019-04-12T03:00:43.465Z,1022.38
2019-04-12T03:01:44.087Z,1022.41
2019-04-12T03:02:44.662Z,1022.48
2019-04-12T03:03:45.296Z,1022.45
2019-04-12T03:04:45.859Z,1022.45
2019-04-12T03:05:46.454Z,1022.47
2019-04-12T03:06:47.003Z,1022.39
2019-04-12T03:07:47.626Z,1022.52
2019-04-12T03:08:48.249Z,1022.33
2019-04-12T03:09:51.432Z,1022.44
2019-04-12T03:10:50.388Z,1022.37
2019-04-12T03:11:50.981Z,1022.37
2019-04-12T03:12:51.530Z,1022.36
2019-04-12T03:13:52.103Z,1022.41
2019-04-12T03:14:52.675Z,1022.41
2019-04-12T03:15:53.247Z,1022.40
2019-04-12T03:16:53.822Z,1022.38
2019-04-12T03:17:54.434Z,1022.43
2019-04-12T03:18:55.006Z,1022.41
2019-04-12T03:19:55.633Z,1022.42
2019-04-12T03:20:56.203Z,1022.42
2019-04-12T03:21:56.782Z,1022.50
2019-04-12T03:22:57.387Z,1022.42
2019-04-12T03:23:58.009Z,1022.45
2019-04-12T03:24:58.585Z,1022.52
2019-04-12T03:25:59.215Z,1022.39
2019-04-12T03:26:59.785Z,1022.39
2019-04-12T03:28:00.357Z,1022.42
2019-04-12T03:29:00.980Z,1022.43
2019-04-12T03:30:01.580Z,1022.38
2019-04-12T03:31:02.154Z,1022.38
2019-04-12T03:32:02.699Z,1022.38
2019-04-12T03:33:03.271Z,1022.47
2019-04-12T03:34:03.845Z,1022.43
2019-04-12T03:35:04.532Z,1022.41
2019-04-12T03:36:05.111Z,1022.47
2019-04-12T03:37:05.659Z,1022.43
2019-04-12T03:38:06.280Z,1022.46
2019-04-12T03:39:06.848Z,1022.47
2019-04-12T03:40:07.514Z,1022.50
2019-04-12T03:41:08.085Z,1022.38
2019-04-12T03:42:08.668Z,1022.44
2019-04-12T03:43:09.278Z,1022.49
2019-04-12T03:44:09.849Z,1022.46
2019-04-12T03:45:10.424Z,1022.43
2019-04-12T03:46:10.997Z,1022.41
2019-04-12T03:47:11.594Z,1022.34
2019-04-12T03:48:12.143Z,1022.43
2019-04-12T03:49:12.773Z,1022.45
2019-04-12T03:50:13.358Z,1022.47
2019-04-12T03:51:14.008Z,1022.44
2019-04-12T03:52:14.629Z,1022.45
2019-04-12T03:53:15.202Z,1022.43
2019-04-12T03:54:15.779Z,1022.43
2019-04-12T03:55:16.350Z,1022.47
2019-04-12T03:56:16.924Z,1022.47
2019-04-12T03:57:17.500Z,1022.42
2019-04-12T03:58:18.114Z,1022.47
2019-04-12T03:59:18.685Z,1022.42
2019-04-12T04:00:19.311Z,1022.38
2019-04-12T04:01:19.883Z,1022.41
2019-04-12T04:02:20.483Z,1022.46
2019-04-12T04:03:21.030Z,1022.44
2019-04-12T04:04:21.601Z,1022.43
2019-04-12T04:05:22.172Z,1022.43
2019-04-12T04:06:22.742Z,1022.48
2019-04-12T04:07:23.323Z,1022.38
2019-04-12T04:08:23.915Z,1022.41
2019-04-12T04:09:24.508Z,1022.41
2019-04-12T04:10:25.079Z,1022.44
2019-04-12T04:11:25.694Z,1022.41
2019-04-12T04:12:26.264Z,1022.46
2019-04-12T04:13:26.837Z,1022.45
2019-04-12T04:14:27.407Z,1022.36
2019-04-12T04:15:28.027Z,1022.41
2019-04-12T04:16:28.601Z,1022.38
2019-04-12T04:17:29.185Z,1022.35
2019-04-12T04:18:29.746Z,1022.36
2019-04-12T04:19:30.356Z,1022.31
2019-04-12T04:20:30.929Z,1022.37
2019-04-12T04:21:31.500Z,1022.34
2019-04-12T04:22:32.078Z,1022.36
2019-04-12T04:23:32.646Z,1022.28
2019-04-12T04:24:33.275Z,1022.33
2019-04-12T04:25:33.841Z,1022.28
2019-04-12T04:26:34.464Z,1022.26
2019-04-12T04:27:35.080Z,1022.26
2019-04-12T04:28:35.653Z,1022.38
2019-04-12T04:29:36.228Z,1022.38
2019-04-12T04:30:36.858Z,1022.37
2019-04-12T04:31:38.321Z,1022.32
2019-04-12T04:32:38.891Z,1022.26
2019-04-12T04:33:39.467Z,1022.35
2019-04-12T04:34:40.037Z,1022.33
2019-04-12T04:35:40.613Z,1022.36
2019-04-12T04:36:41.287Z,1022.27
2019-04-12T04:37:41.852Z,1022.28
2019-04-12T04:38:42.427Z,1022.42
2019-04-12T04:39:43.000Z,1022.32
2019-04-12T04:40:43.626Z,1022.34
2019-04-12T04:41:44.195Z,1022.39
2019-04-12T04:42:44.768Z,1022.39
2019-04-12T04:43:45.341Z,1022.45
2019-04-12T04:44:45.966Z,1022.39
2019-04-12T04:45:46.542Z,1022.39
2019-04-12T04:46:47.113Z,1022.45
2019-04-12T04:47:47.686Z,1022.39
2019-04-12T04:48:48.260Z,1022.39
2019-04-12T04:49:48.834Z,1022.34
2019-04-12T04:50:49.460Z,1022.36
2019-04-12T04:51:50.123Z,1022.42
2019-04-12T04:52:50.701Z,1022.39
2019-04-12T04:53:51.269Z,1022.49
2019-04-12T04:54:51.843Z,1022.46
2019-04-12T04:55:52.468Z,1022.47
2019-04-12T04:56:53.041Z,1022.52
2019-04-12T04:57:53.609Z,1022.42
2019-04-12T04:58:54.182Z,1022.45
2019-04-12T04:59:54.754Z,1022.47
2019-04-12T05:00:55.328Z,1022.54
2019-04-12T05:01:56.049Z,1022.52
2019-04-12T05:02:56.619Z,1022.49
2019-04-12T05:03:57.193Z,1022.47
2019-04-12T05:04:57.765Z,1022.47
2019-04-12T05:05:58.337Z,1022.45
2019-04-12T05:06:58.913Z,1022.53
2019-04-12T05:07:59.486Z,1022.53
2019-04-12T05:09:00.057Z,1022.42
2019-04-12T05:10:00.680Z,1022.46
2019-04-12T05:11:01.252Z,1022.51
2019-04-12T05:12:01.874Z,1022.48
2019-04-12T05:13:02.498Z,1022.47
2019-04-12T05:14:03.067Z,1022.51
2019-04-12T05:15:03.639Z,1022.49
2019-04-12T05:16:04.263Z,1022.52
2019-04-12T05:17:04.886Z,1022.57
2019-04-12T05:18:05.461Z,1022.49
2019-04-12T05:19:06.035Z,1022.49
2019-04-12T05:20:06.659Z,1022.45
2019-04-12T05:21:07.282Z,1022.56
2019-04-12T05:22:07.856Z,1022.43
2019-04-12T05:23:08.481Z,1022.48
2019-04-12T05:24:09.051Z,1022.48
2019-04-12T05:25:09.627Z,1022.51
2019-04-12T05:26:10.197Z,1022.50
2019-04-12T05:27:10.771Z,1022.39
2019-04-12T05:28:11.394Z,1022.45
2019-04-12T05:29:11.969Z,1022.41
2019-04-12T05:30:12.889Z,1022.37
2019-04-12T05:31:13.661Z,1022.44
2019-04-12T05:32:14.237Z,1022.43
2019-04-12T05:33:14.903Z,1022.46
2019-04-12T05:34:15.578Z,1022.49
2019-04-12T05:35:16.152Z,1022.42
2019-04-12T05:36:16.724Z,1022.43
2019-04-12T05:37:17.298Z,1022.37
2019-04-12T05:38:17.920Z,1022.43
2019-04-12T05:39:18.494Z,1022.46
2019-04-12T05:40:19.115Z,1022.41
2019-04-12T05:41:19.686Z,1022.44
2019-04-12T05:42:20.263Z,1022.46
2019-04-12T05:43:20.832Z,1022.48
2019-04-12T05:44:21.402Z,1022.47
2019-04-12T05:45:21.974Z,1022.53
2019-04-12T05:46:22.565Z,1022.50
2019-04-12T05:47:23.212Z,1022.52
2019-04-12T05:48:23.787Z,1022.47
2019-04-12T05:49:24.361Z,1022.46
2019-04-12T05:50:24.934Z,1022.41
2019-04-12T05:51:25.506Z,1022.47
2019-04-12T05:52:26.082Z,1022.39
2019-04-12T05:53:26.653Z,1022.41
2019-04-12T05:54:27.230Z,1022.39
2019-04-12T05:55:27.805Z,1022.43
2019-04-12T05:56:28.427Z,1022.37
2019-04-12T05:57:29.048Z,1022.41
2019-04-12T05:58:29.671Z,1022.38
2019-04-12T05:59:30.245Z,1022.33
2019-04-12T06:00:30.819Z,1022.38
2019-04-12T06:01:31.443Z,1022.32
2019-04-12T06:02:32.011Z,1022.38
2019-04-12T06:03:32.634Z,1022.41
2019-04-12T06:04:34.936Z,1022.46
2019-04-12T06:05:34.773Z,1022.50
2019-04-12T06:06:35.343Z,1022.44
2019-04-12T06:07:35.915Z,1022.53
2019-04-12T06:08:36.489Z,1022.46
2019-04-12T06:09:37.108Z,1022.39
2019-04-12T06:10:37.679Z,1022.52
2019-04-12T06:11:38.250Z,1022.51
2019-04-12T06:12:38.870Z,1022.44
2019-04-12T06:13:39.445Z,1022.49
2019-04-12T06:16:15.400Z,1022.52
2019-04-12T06:17:29.679Z,1022.48
2019-04-12T06:18:30.241Z,1022.49
2019-04-12T06:19:30.854Z,1022.46
2019-04-12T06:20:31.428Z,1022.54
2019-04-12T06:21:31.999Z,1022.46
2019-04-12T06:22:33.278Z,1022.49
2019-04-12T06:23:33.964Z,1022.52
2019-04-12T06:24:34.534Z,1022.49
2019-04-12T06:25:35.102Z,1022.47
2019-04-12T06:26:35.724Z,1022.51
2019-04-12T06:27:36.348Z,1022.46
2019-04-12T06:28:36.960Z,1022.50
2019-04-12T06:29:37.535Z,1022.53
2019-04-12T06:30:38.105Z,1022.49
2019-04-12T06:31:38.692Z,1022.46
2019-04-12T06:32:39.345Z,1022.54
2019-04-12T06:33:39.922Z,1022.63
2019-04-12T06:34:40.490Z,1022.60
2019-04-12T06:35:41.064Z,1022.60
2019-04-12T06:36:41.685Z,1022.65
2019-04-12T06:37:42.258Z,1022.68
2019-04-12T06:38:42.871Z,1022.61
2019-04-12T06:39:43.446Z,1022.64
2019-04-12T06:40:44.020Z,1022.68
2019-04-12T06:41:44.594Z,1022.65
2019-04-12T06:42:45.169Z,1022.63
2019-04-12T06:43:45.751Z,1022.67
2019-04-12T06:44:46.318Z,1022.60
2019-04-12T06:45:46.890Z,1022.69
2019-04-12T06:46:47.467Z,1022.71
2019-04-12T06:47:48.036Z,1022.73
2019-04-12T06:48:48.612Z,1022.74
2019-04-12T06:49:49.232Z,1022.71
2019-04-12T06:50:49.760Z,1022.76
2019-04-12T06:51:50.329Z,1022.65
2019-04-12T06:52:50.902Z,1022.60
2019-04-12T06:53:51.477Z,1022.63
2019-04-12T06:54:52.047Z,1022.63
2019-04-12T06:55:52.668Z,1022.65
2019-04-12T06:56:53.288Z,1022.70
2019-04-12T06:57:53.862Z,1022.72
2019-04-12T06:58:54.435Z,1022.64
2019-04-12T06:59:55.008Z,1022.66
2019-04-12T07:00:55.632Z,1022.64
2019-04-12T07:01:56.204Z,1022.71
2019-04-12T07:02:56.775Z,1022.72
2019-04-12T07:03:57.658Z,1022.63
2019-04-12T07:04:58.226Z,1022.67
2019-04-12T07:05:58.798Z,1022.63
2019-04-12T07:06:59.371Z,1022.67
2019-04-12T07:07:59.979Z,1022.58
2019-04-12T07:09:00.517Z,1022.67
2019-04-12T07:10:01.089Z,1022.67
2019-04-12T07:11:01.712Z,1022.63
2019-04-12T07:12:02.335Z,1022.64
2019-04-12T07:13:02.908Z,1022.65
2019-04-12T07:14:03.484Z,1022.73
2019-04-12T07:15:04.052Z,1022.68
2019-04-12T07:16:04.625Z,1022.77
2019-04-12T07:17:05.198Z,1022.71
2019-04-12T07:18:05.780Z,1022.63
2019-04-12T07:19:06.386Z,1022.77
2019-04-12T07:20:07.015Z,1022.71
2019-04-12T07:21:07.626Z,1022.75
2019-04-12T07:22:08.199Z,1022.76
2019-04-12T07:23:08.770Z,1022.75
2019-04-12T07:24:09.344Z,1022.75
2019-04-12T07:25:09.970Z,1022.71
2019-04-12T07:26:10.588Z,1022.79
2019-04-12T07:27:11.159Z,1022.73
2019-04-12T07:28:11.730Z,1022.71
2019-04-12T07:29:12.305Z,1022.77
2019-04-12T07:30:12.920Z,1022.70
2019-04-12T07:31:13.539Z,1022.67
2019-04-12T07:32:14.110Z,1022.78
2019-04-12T07:33:14.684Z,1022.72
2019-04-12T07:34:15.255Z,1022.70
2019-04-12T07:35:15.827Z,1022.85
2019-04-12T07:36:16.399Z,1022.72
2019-04-12T07:37:16.975Z,1022.78
2019-04-12T07:38:17.598Z,1022.72
2019-04-12T07:39:18.171Z,1022.83
2019-04-12T07:40:18.743Z,1022.72
2019-04-12T07:41:19.366Z,1022.77
2019-04-12T07:42:19.939Z,1022.79
2019-04-12T07:43:20.514Z,1022.74
2019-04-12T07:44:21.083Z,1022.76
2019-04-12T07:45:21.654Z,1022.74
2019-04-12T07:46:22.227Z,1022.76
2019-04-12T07:47:22.840Z,1022.67
2019-04-12T07:48:23.462Z,1022.76
2019-04-12T07:49:25.029Z,1022.67
2019-04-12T07:50:25.597Z,1022.71
2019-04-12T07:51:26.167Z,1022.75
2019-04-12T07:52:26.839Z,1022.70
2019-04-12T07:53:27.358Z,1022.69
2019-04-12T07:54:28.130Z,1022.68
2019-04-12T07:55:28.702Z,1022.73
2019-04-12T07:56:29.271Z,1022.63
2019-04-12T07:57:29.841Z,1022.63
2019-04-12T07:58:30.417Z,1022.65
2019-04-12T07:59:30.988Z,1022.71
2019-04-12T08:00:31.560Z,1022.70
2019-04-12T08:01:32.182Z,1022.64
2019-04-12T08:02:32.753Z,1022.66
2019-04-12T08:03:33.324Z,1022.69
2019-04-12T08:04:33.894Z,1022.72
2019-04-12T08:05:34.465Z,1022.71
2019-04-12T08:06:35.037Z,1022.68
2019-04-12T08:07:37.744Z,1022.74
2019-04-12T08:08:37.224Z,1022.71
2019-04-12T08:09:37.797Z,1022.70
2019-04-12T08:10:38.370Z,1022.70
2019-04-12T08:11:38.941Z,1022.70
2019-04-12T08:12:39.514Z,1022.72
2019-04-12T08:13:40.088Z,1022.79
2019-04-12T08:14:40.709Z,1022.73
2019-04-12T08:15:41.283Z,1022.75
2019-04-12T08:16:41.907Z,1022.79
2019-04-12T08:17:42.480Z,1022.81
2019-04-12T08:18:43.103Z,1022.77
2019-04-12T08:19:43.676Z,1022.81
2019-04-12T08:20:44.250Z,1022.76
2019-04-12T08:21:44.825Z,1022.70
2019-04-12T08:22:45.399Z,1022.71
2019-04-12T08:23:45.971Z,1022.64
2019-04-12T08:24:46.548Z,1022.66
2019-04-12T08:25:47.164Z,1022.69
2019-04-12T08:26:47.791Z,1022.74
2019-04-12T08:27:57.853Z,1022.72
2019-04-12T08:28:49.981Z,1022.67
2019-04-12T08:29:50.549Z,1022.71
2019-04-12T08:30:51.124Z,1022.75
2019-04-12T08:31:51.744Z,1022.73
2019-04-12T08:32:52.320Z,1022.71
2019-04-12T08:33:52.895Z,1022.71
2019-04-12T08:34:53.465Z,1022.65
2019-04-12T08:35:54.036Z,1022.67
2019-04-12T08:36:54.610Z,1022.68
2019-04-12T08:38:04.294Z,1022.73
2019-04-12T08:38:56.800Z,1022.77
2019-04-12T08:39:57.468Z,1022.74
2019-04-12T08:40:58.040Z,1022.75
2019-04-12T08:41:58.664Z,1022.72
2019-04-12T08:42:59.236Z,1022.72
2019-04-12T08:43:59.808Z,1022.71
2019-04-12T08:45:00.381Z,1022.77
2019-04-12T08:46:00.952Z,1022.77
2019-04-12T08:47:01.534Z,1022.75
2019-04-12T08:48:02.200Z,1022.74
2019-04-12T08:49:02.817Z,1022.74
2019-04-12T08:50:03.429Z,1022.78
2019-04-12T08:51:04.123Z,1022.78
2019-04-12T08:52:04.663Z,1022.75
2019-04-12T08:53:05.263Z,1022.73
2019-04-12T08:54:05.869Z,1022.78
2019-04-12T08:55:06.461Z,1022.78
2019-04-12T08:56:07.056Z,1022.73
2019-04-12T08:57:07.633Z,1022.67
2019-04-12T08:58:11.120Z,1022.73
2019-04-12T08:59:09.836Z,1022.73
2019-04-12T09:00:10.481Z,1022.71
2019-04-12T09:01:11.115Z,1022.67
2019-04-12T09:02:11.635Z,1022.69
2019-04-12T09:03:12.285Z,1022.63
2019-04-12T09:04:12.949Z,1022.61
2019-04-12T09:05:13.564Z,1022.71
2019-04-12T09:06:14.173Z,1022.66
2019-04-12T09:07:14.779Z,1022.70
2019-04-12T09:08:15.316Z,1022.76
2019-04-12T09:09:15.908Z,1022.73
2019-04-12T09:10:16.526Z,1022.62
2019-04-12T09:11:17.200Z,1022.66
2019-04-12T09:12:17.718Z,1022.74
2019-04-12T09:13:18.287Z,1022.74
2019-04-12T09:14:18.911Z,1022.71
2019-04-12T09:15:19.523Z,1022.76
2019-04-12T09:16:20.131Z,1022.76
2019-04-12T09:17:20.687Z,1022.78
2019-04-12T09:18:21.313Z,1022.73
2019-04-12T09:19:21.950Z,1022.74
2019-04-12T09:20:22.497Z,1022.80
2019-04-12T09:21:23.119Z,1022.83
2019-04-12T09:22:23.685Z,1022.78
2019-04-12T09:23:25.327Z,1022.82
2019-04-12T09:24:25.888Z,1022.85
2019-04-12T09:25:26.551Z,1022.91
2019-04-12T09:26:27.182Z,1022.75
2019-04-12T09:27:27.875Z,1022.83
2019-04-12T09:28:28.454Z,1022.90
2019-04-12T09:29:29.073Z,1022.90
2019-04-12T09:30:29.653Z,1022.91
2019-04-12T09:31:30.320Z,1022.88
2019-04-12T09:32:30.978Z,1022.85
2019-04-12T09:33:31.558Z,1022.77
2019-04-12T09:34:32.082Z,1022.86
2019-04-12T09:35:32.656Z,1022.88
2019-04-12T09:36:33.231Z,1022.84
2019-04-12T09:37:33.803Z,1022.94
2019-04-12T09:38:34.377Z,1022.81
2019-04-12T09:39:34.950Z,1022.88
2019-04-12T09:40:35.572Z,1022.83
2019-04-12T09:41:36.147Z,1022.86
2019-04-12T09:42:36.723Z,1022.90
2019-04-12T09:43:37.346Z,1022.83
2019-04-12T09:44:37.918Z,1022.84
2019-04-12T09:45:38.543Z,1022.85
2019-04-12T09:46:39.168Z,1022.80
2019-04-12T09:47:39.745Z,1022.78
2019-04-12T09:48:40.314Z,1022.85
2019-04-12T09:49:40.927Z,1022.79
2019-04-12T09:50:41.549Z,1022.83
2019-04-12T09:51:42.174Z,1022.84
2019-04-12T09:52:42.747Z,1022.87
2019-04-12T09:53:43.321Z,1022.86
2019-04-12T09:54:43.894Z,1022.89
2019-04-12T09:55:44.468Z,1022.85
2019-04-12T09:56:45.040Z,1022.88
2019-04-12T09:57:45.612Z,1022.87
2019-04-12T09:58:46.186Z,1022.88
2019-04-12T09:59:46.761Z,1022.87
2019-04-12T10:00:47.333Z,1022.85
2019-04-12T10:01:47.906Z,1022.88
2019-04-12T10:02:48.481Z,1022.88
2019-04-12T10:03:49.056Z,1022.87
2019-04-12T10:04:49.629Z,1022.81
2019-04-12T10:05:50.251Z,1022.83
2019-04-12T10:06:50.824Z,1022.84
2019-04-12T10:07:51.401Z,1022.80
2019-04-12T10:08:52.026Z,1022.77
2019-04-12T10:09:52.600Z,1022.85
2019-04-12T10:10:53.175Z,1022.85
2019-04-12T10:11:53.796Z,1022.80
2019-04-12T10:12:54.370Z,1022.78
2019-04-12T10:13:54.948Z,1022.81
2019-04-12T10:14:55.522Z,1022.84
2019-04-12T10:15:56.096Z,1022.87
2019-04-12T10:16:56.823Z,1022.78
2019-04-12T10:17:57.397Z,1022.78
2019-04-12T10:18:57.973Z,1022.80
2019-04-12T10:19:58.552Z,1022.78
2019-04-12T10:20:59.129Z,1022.85
2019-04-12T10:21:59.710Z,1022.77
2019-04-12T10:23:00.285Z,1022.81
2019-04-12T10:24:00.915Z,1022.76
2019-04-12T10:25:01.493Z,1022.77
2019-04-12T10:26:02.122Z,1022.78
2019-04-12T10:27:02.752Z,1022.80
2019-04-12T10:28:03.370Z,1022.80
2019-04-12T10:29:03.991Z,1022.72
2019-04-12T10:30:04.620Z,1022.76
2019-04-12T10:31:05.238Z,1022.74
2019-04-12T10:32:05.820Z,1022.75
2019-04-12T10:33:06.450Z,1022.81
2019-04-12T10:34:07.027Z,1022.80
2019-04-12T10:35:07.609Z,1022.75
2019-04-12T10:36:08.238Z,1022.86
2019-04-12T10:37:08.819Z,1022.78
2019-04-12T10:38:09.402Z,1022.76
2019-04-12T10:39:09.983Z,1022.82
2019-04-12T10:40:11.153Z,1022.73
2019-04-12T10:41:11.822Z,1022.77
2019-04-12T10:42:12.452Z,1022.80
2019-04-12T10:43:13.083Z,1022.80
2019-04-12T10:44:13.665Z,1022.85
2019-04-12T10:45:14.246Z,1022.81
2019-04-12T10:46:14.825Z,1022.81
2019-04-12T10:47:15.409Z,1022.80
2019-04-12T10:48:16.084Z,1022.75
2019-04-12T10:50:18.277Z,1022.69
2019-04-12T10:51:18.854Z,1022.73
2019-04-12T10:52:19.467Z,1022.81
2019-04-12T10:53:20.095Z,1022.84
2019-04-12T10:58:40.877Z,1022.91
2019-04-12T10:59:41.456Z,1022.83
2019-04-12T11:00:42.037Z,1022.92
2019-04-12T11:01:42.619Z,1022.98
2019-04-12T11:03:44.777Z,1022.98
2019-04-12T11:04:45.365Z,1022.98
2019-04-12T11:05:45.951Z,1022.96
2019-04-12T11:07:48.165Z,1023.07
2019-04-12T11:08:48.752Z,1022.95
2019-04-12T11:09:49.390Z,1022.87
2019-04-12T11:10:49.979Z,1022.99
2019-04-12T11:12:52.134Z,1022.98
2019-04-12T11:14:38.467Z,1022.96
2019-04-12T11:15:39.046Z,1022.96
2019-04-12T11:16:39.624Z,1023.01
2019-04-12T11:17:40.202Z,1022.94
2019-04-12T11:19:56.210Z,1022.94
2019-04-12T11:20:56.836Z,1022.94
2019-04-12T11:21:57.415Z,1022.98
2019-04-12T11:23:11.707Z,1022.89
2019-04-12T11:24:26.066Z,1022.92
2019-04-12T11:25:29.616Z,1022.86
2019-04-12T11:26:28.210Z,1023.03
2019-04-12T11:28:30.362Z,1022.96
2019-04-12T11:33:55.508Z,1022.98
2019-04-12T11:35:57.713Z,1022.96
2019-04-12T11:39:15.362Z,1023.00
2019-04-12T11:40:15.957Z,1022.92
2019-04-12T11:41:16.542Z,1023.00
2019-04-12T11:43:19.571Z,1023.03
2019-04-12T11:44:20.156Z,1023.00
2019-04-12T11:45:20.736Z,1022.94
2019-04-12T11:46:21.317Z,1022.90
2019-04-12T11:48:37.444Z,1022.90
2019-04-12T11:50:57.387Z,1022.95
2019-04-12T11:51:58.027Z,1022.89
2019-04-12T11:54:18.067Z,1022.95
2019-04-12T11:55:18.658Z,1022.92
2019-04-12T11:56:19.286Z,1023.04
2019-04-12T11:57:19.880Z,1022.84
2019-04-12T11:58:36.314Z,1022.87
2019-04-12T11:59:29.521Z,1022.86
2019-04-12T12:01:25.228Z,1022.90
2019-04-12T12:03:41.160Z,1022.84
2019-04-12T12:04:41.745Z,1022.87
2019-04-12T12:05:42.333Z,1022.84
2019-04-12T12:07:14.363Z,1022.94
2019-04-12T12:08:14.961Z,1022.79
2019-04-12T12:09:15.550Z,1022.86
2019-04-12T12:10:16.147Z,1022.81
2019-04-12T12:11:16.789Z,1022.71
2019-04-12T12:12:17.431Z,1022.73
2019-04-12T12:13:18.026Z,1022.79
2019-04-12T12:14:18.618Z,1022.72
2019-04-12T12:15:19.212Z,1022.72
2019-04-12T12:16:19.856Z,1022.72
2019-04-12T12:17:20.450Z,1022.82
2019-04-12T12:18:21.044Z,1022.72
2019-04-12T12:19:21.640Z,1022.75
2019-04-12T12:20:22.233Z,1022.81
2019-04-12T12:22:24.452Z,1022.77
2019-04-12T12:23:24.987Z,1022.76
2019-04-12T12:24:25.629Z,1022.71
2019-04-12T12:25:26.214Z,1022.68
2019-04-12T12:26:26.803Z,1022.69
2019-04-12T12:27:27.398Z,1022.73
2019-04-12T12:28:28.043Z,1022.70
2019-04-12T12:29:28.638Z,1022.70
2019-04-12T12:30:29.289Z,1022.70
2019-04-12T12:31:29.935Z,1022.78
2019-04-12T12:32:30.529Z,1022.78
2019-04-12T12:33:31.125Z,1022.83
2019-04-12T12:34:32.571Z,1022.74
2019-04-12T12:35:33.941Z,1022.78
2019-04-12T12:36:34.551Z,1022.76
2019-04-12T12:37:35.141Z,1022.71
2019-04-12T12:38:35.735Z,1022.66
2019-04-12T12:39:36.336Z,1022.70
2019-04-12T12:40:36.935Z,1022.68
2019-04-12T12:41:37.528Z,1022.65
2019-04-12T12:42:38.122Z,1022.56
2019-04-12T12:43:38.717Z,1022.73
2019-04-12T12:44:39.312Z,1022.70
2019-04-12T12:45:39.911Z,1022.69
2019-04-12T12:46:40.504Z,1022.71
2019-04-12T12:47:41.099Z,1022.65
2019-04-12T12:48:41.744Z,1022.68